Time;durP1;ratioP1;P1;durP2;ratioP2;P2;SDS_P1;SDS_P2;PMS_P1;PMS_P2;Temp;Humidity;BMP_temperature;BMP_pressure;BME280_temperature;BME280_humidity;BME280_pressure;Samples;Min_cycle;Max_cycle;Signal;HPM_P1;HPM_P2
2022/06/25 00:02:08;;;;;;;20.92;18.92;;;;;;;;;;6178294;28;20234;-75
2022/06/25 00:05:28;;;;;;;20.00;17.98;;;;;;;;;;6176596;28;20234;-75
2022/06/25 00:08:51;;;;;;;21.38;19.40;;;;;;;;;;6173617;28;20238;-75
2022/06/25 00:15:50;;;;;;;22.27;20.38;;;;;;;;;;6178963;28;20584;-75
2022/06/25 00:19:10;;;;;;;18.48;16.65;;;;;;;;;;6175484;28;20846;-74
2022/06/25 00:22:31;;;;;;;19.42;17.67;;;;;;;;;;6175708;28;20234;-75
2022/06/25 00:25:53;;;;;;;20.33;18.75;;;;;;;;;;6173409;28;20500;-74
2022/06/25 00:29:14;;;;;;;22.15;20.17;;;;;;;;;;6173152;28;20230;-75
2022/06/25 00:32:35;;;;;;;21.15;19.65;;;;;;;;;;6176237;28;20237;-74
2022/06/25 00:35:56;;;;;;;21.67;19.85;;;;;;;;;;6195876;28;20230;-75
2022/06/25 00:39:16;;;;;;;22.90;21.10;;;;;;;;;;6178339;28;20612;-74
2022/06/25 00:42:41;;;;;;;22.33;20.13;;;;;;;;;;6182422;28;20675;-74
2022/06/25 00:46:02;;;;;;;23.55;21.48;;;;;;;;;;6178912;28;20674;-75
2022/06/25 00:49:23;;;;;;;25.95;23.60;;;;;;;;;;6172576;28;20566;-76
2022/06/25 00:52:45;;;;;;;22.50;20.50;;;;;;;;;;6179686;28;20325;-75
2022/06/25 00:56:08;;;;;;;22.67;20.63;;;;;;;;;;6179703;28;20611;-73
2022/06/25 00:59:34;;;;;;;23.75;21.85;;;;;;;;;;6179137;28;20233;-74
2022/06/25 01:02:54;;;;;;;23.55;21.25;;;;;;;;;;6183595;28;20234;-74
2022/06/25 01:06:15;;;;;;;25.92;23.63;;;;;;;;;;6197028;28;20253;-75
2022/06/25 01:09:37;;;;;;;25.33;23.27;;;;;;;;;;6181469;28;20234;-75
2022/06/25 01:12:58;;;;;;;23.75;21.95;;;;;;;;;;6178642;28;20591;-76
2022/06/25 01:16:21;;;;;;;22.88;21.02;;;;;;;;;;6174630;28;20241;-74
2022/06/25 01:19:42;;;;;;;24.13;21.88;;;;;;;;;;6178560;28;20797;-74
2022/06/25 01:23:04;;;;;;;26.17;24.13;;;;;;;;;;6175238;28;20245;-75
2022/06/25 01:26:25;;;;;;;23.23;21.30;;;;;;;;;;6179350;28;20229;-75
2022/06/25 01:29:46;;;;;;;25.45;23.25;;;;;;;;;;6155303;28;20238;-75
2022/06/25 01:33:07;;;;;;;23.65;21.65;;;;;;;;;;6175722;28;20253;-75
2022/06/25 01:36:28;;;;;;;26.63;24.10;;;;;;;;;;6168779;28;20249;-76
2022/06/25 01:39:53;;;;;;;25.00;22.80;;;;;;;;;;6184722;28;20237;-75
2022/06/25 01:43:15;;;;;;;24.65;22.75;;;;;;;;;;6193017;28;20257;-75
2022/06/25 01:46:35;;;;;;;23.60;21.58;;;;;;;;;;6166864;28;20238;-74
2022/06/25 01:49:56;;;;;;;25.85;23.60;;;;;;;;;;6167678;28;20221;-74
2022/06/25 01:53:17;;;;;;;24.55;22.35;;;;;;;;;;6187897;28;20233;-75
2022/06/25 01:56:39;;;;;;;26.05;23.90;;;;;;;;;;6169708;28;20573;-75
2022/06/25 02:00:00;;;;;;;23.75;21.85;;;;;;;;;;6158117;28;20233;-74
2022/06/25 02:03:22;;;;;;;23.88;21.77;;;;;;;;;;6183343;28;20229;-75
2022/06/25 02:06:43;;;;;;;23.55;21.65;;;;;;;;;;6172369;28;20233;-75
2022/06/25 02:10:04;;;;;;;25.63;23.40;;;;;;;;;;6172898;28;20506;-75
2022/06/25 02:13:25;;;;;;;26.50;24.17;;;;;;;;;;6177037;28;20229;-74
2022/06/25 02:16:46;;;;;;;23.30;21.20;;;;;;;;;;6157148;28;20255;-75
2022/06/25 02:20:07;;;;;;;23.50;21.50;;;;;;;;;;6167707;28;20784;-75
2022/06/25 02:23:28;;;;;;;26.80;24.50;;;;;;;;;;6190654;28;20720;-75
2022/06/25 02:26:51;;;;;;;25.77;23.67;;;;;;;;;;6170006;28;20230;-74
2022/06/25 02:30:13;;;;;;;28.73;26.45;;;;;;;;;;6181372;28;20230;-75
2022/06/25 02:33:34;;;;;;;27.83;25.50;;;;;;;;;;6178858;28;20505;-75
2022/06/25 02:36:55;;;;;;;27.95;25.67;;;;;;;;;;6166973;28;20607;-75
2022/06/25 02:40:18;;;;;;;28.63;26.02;;;;;;;;;;6174583;28;20234;-75
2022/06/25 02:43:42;;;;;;;28.27;25.98;;;;;;;;;;6191542;28;20266;-74
2022/06/25 02:47:10;;;;;;;26.10;23.88;;;;;;;;;;6184635;28;20551;-74
2022/06/25 02:50:51;;;;;;;27.13;24.58;;;;;;;;;;6174629;28;20226;-76
2022/06/25 02:54:12;;;;;;;28.23;25.50;;;;;;;;;;6178584;28;20574;-75
2022/06/25 03:01:12;;;;;;;27.42;25.10;;;;;;;;;;6169837;28;20230;-74
2022/06/25 03:04:34;;;;;;;28.55;25.95;;;;;;;;;;6164648;28;20234;-74
2022/06/25 03:07:55;;;;;;;30.38;27.73;;;;;;;;;;6177087;28;20225;-74
2022/06/25 03:11:15;;;;;;;29.17;26.75;;;;;;;;;;6174661;28;20226;-74
2022/06/25 03:14:36;;;;;;;32.40;29.30;;;;;;;;;;6189040;28;20614;-75
2022/06/25 03:17:58;;;;;;;36.78;33.30;;;;;;;;;;6183806;28;20246;-75
2022/06/25 03:21:38;;;;;;;36.28;33.15;;;;;;;;;;6173990;28;20221;-75
2022/06/25 03:25:01;;;;;;;38.72;35.28;;;;;;;;;;6189428;28;20254;-74
2022/06/25 03:28:22;;;;;;;38.75;35.55;;;;;;;;;;6176762;28;20241;-74
2022/06/25 03:31:43;;;;;;;38.00;34.63;;;;;;;;;;6171797;28;20257;-73
2022/06/25 03:35:23;;;;;;;36.35;32.83;;;;;;;;;;6172113;28;20229;-74
2022/06/25 03:39:02;;;;;;;37.10;33.70;;;;;;;;;;6171852;28;20225;-75
2022/06/25 03:42:23;;;;;;;38.70;35.38;;;;;;;;;;6172833;28;20234;-75
2022/06/25 03:46:04;;;;;;;39.25;35.75;;;;;;;;;;6170168;28;20269;-75
2022/06/25 03:49:24;;;;;;;37.88;34.47;;;;;;;;;;6167490;28;20324;-74
2022/06/25 03:52:51;;;;;;;36.97;33.88;;;;;;;;;;6173937;28;20217;-73
2022/06/25 03:56:13;;;;;;;44.78;40.55;;;;;;;;;;6170962;28;20229;-74
2022/06/25 03:59:38;;;;;;;35.47;32.35;;;;;;;;;;6166864;28;20237;-75
2022/06/25 04:03:10;;;;;;;36.03;32.83;;;;;;;;;;6168987;28;20229;-75
2022/06/25 04:06:48;;;;;;;35.03;31.73;;;;;;;;;;6162679;28;20229;-75
2022/06/25 04:10:10;;;;;;;36.63;33.35;;;;;;;;;;6174317;28;20592;-74
2022/06/25 04:13:32;;;;;;;38.92;35.42;;;;;;;;;;6178074;28;20222;-74
2022/06/25 04:16:54;;;;;;;36.13;32.95;;;;;;;;;;6173129;28;20600;-75
2022/06/25 04:20:15;;;;;;;34.90;32.00;;;;;;;;;;6189917;28;20245;-73
2022/06/25 04:23:36;;;;;;;34.17;31.13;;;;;;;;;;6192793;28;20241;-75
2022/06/25 04:26:56;;;;;;;31.60;28.95;;;;;;;;;;6175510;28;20927;-75
2022/06/25 04:30:18;;;;;;;33.38;30.52;;;;;;;;;;6173409;28;20261;-74
2022/06/25 04:33:42;;;;;;;32.28;29.40;;;;;;;;;;6177107;28;20718;-75
2022/06/25 04:37:03;;;;;;;31.60;28.85;;;;;;;;;;6177494;28;20324;-75
2022/06/25 04:40:24;;;;;;;33.72;30.73;;;;;;;;;;6175966;28;20236;-75
2022/06/25 04:43:45;;;;;;;33.10;30.33;;;;;;;;;;6181751;28;20238;-75
2022/06/25 04:47:12;;;;;;;32.25;29.50;;;;;;;;;;6182075;28;20233;-73
2022/06/25 04:50:44;;;;;;;30.48;27.80;;;;;;;;;;6178899;28;20245;-75
2022/06/25 04:54:05;;;;;;;28.88;26.27;;;;;;;;;;6182711;28;20229;-75
2022/06/25 04:57:30;;;;;;;29.67;27.13;;;;;;;;;;6196384;28;20225;-75
2022/06/25 05:01:09;;;;;;;29.77;27.02;;;;;;;;;;6178622;28;20614;-74
2022/06/25 05:04:31;;;;;;;27.48;25.15;;;;;;;;;;6179340;28;20246;-75
2022/06/25 05:07:51;;;;;;;27.83;25.30;;;;;;;;;;6195170;28;20324;-75
2022/06/25 05:11:12;;;;;;;26.98;24.42;;;;;;;;;;6178616;28;20230;-74
2022/06/25 05:14:33;;;;;;;29.88;26.95;;;;;;;;;;6184094;28;20230;-75
2022/06/25 05:17:56;;;;;;;25.77;23.65;;;;;;;;;;6192635;28;20229;-75
2022/06/25 05:21:19;;;;;;;25.05;22.65;;;;;;;;;;6177792;28;20312;-74
2022/06/25 05:24:39;;;;;;;26.20;23.98;;;;;;;;;;6177487;28;20246;-74
2022/06/25 05:28:00;;;;;;;24.40;22.30;;;;;;;;;;6182710;28;20218;-74
2022/06/25 05:31:21;;;;;;;23.90;21.75;;;;;;;;;;6177810;28;20683;-74
2022/06/25 05:34:41;;;;;;;20.30;18.58;;;;;;;;;;6179992;28;20316;-74
2022/06/25 05:38:03;;;;;;;17.80;16.45;;;;;;;;;;6180459;28;20230;-75
2022/06/25 05:41:24;;;;;;;18.15;16.63;;;;;;;;;;6169117;28;20257;-73
2022/06/25 05:44:44;;;;;;;19.60;17.95;;;;;;;;;;6176189;28;20262;-74
2022/06/25 05:48:05;;;;;;;18.13;16.58;;;;;;;;;;6178976;28;20234;-75
2022/06/25 05:51:25;;;;;;;20.10;18.42;;;;;;;;;;6177594;28;20624;-74
2022/06/25 05:54:47;;;;;;;17.77;16.38;;;;;;;;;;6179425;28;20230;-75
2022/06/25 05:58:08;;;;;;;18.25;16.52;;;;;;;;;;6174520;28;20230;-74
2022/06/25 06:01:30;;;;;;;14.25;13.05;;;;;;;;;;6170118;28;20226;-74
2022/06/25 06:04:50;;;;;;;14.48;13.38;;;;;;;;;;6174198;28;20238;-74
2022/06/25 06:08:11;;;;;;;13.70;12.60;;;;;;;;;;6176121;28;20328;-74
2022/06/25 06:11:33;;;;;;;13.00;11.95;;;;;;;;;;6174596;28;20305;-74
2022/06/25 06:14:54;;;;;;;13.23;12.15;;;;;;;;;;6174677;28;20226;-74
2022/06/25 06:18:15;;;;;;;14.00;12.77;;;;;;;;;;6175566;28;20250;-73
2022/06/25 06:21:35;;;;;;;12.50;11.50;;;;;;;;;;6173744;28;20229;-76
2022/06/25 06:24:56;;;;;;;11.48;10.48;;;;;;;;;;6179788;28;21036;-73
2022/06/25 06:28:18;;;;;;;9.05;8.25;;;;;;;;;;6171133;28;20230;-73
2022/06/25 06:31:39;;;;;;;9.40;8.60;;;;;;;;;;6174249;28;20222;-75
2022/06/25 06:34:59;;;;;;;10.30;9.43;;;;;;;;;;6173365;28;20234;-75
2022/06/25 06:38:20;;;;;;;8.45;7.65;;;;;;;;;;6167840;28;20241;-75
2022/06/25 06:41:40;;;;;;;8.48;7.63;;;;;;;;;;6176163;28;20754;-74
2022/06/25 06:45:02;;;;;;;5.90;5.40;;;;;;;;;;6168337;28;20241;-75
2022/06/25 06:48:23;;;;;;;5.43;5.03;;;;;;;;;;6167270;28;20760;-74
2022/06/25 06:51:44;;;;;;;7.30;6.80;;;;;;;;;;6171400;28;20258;-73
2022/06/25 06:55:05;;;;;;;5.80;5.38;;;;;;;;;;6170769;28;20250;-74
2022/06/25 06:58:26;;;;;;;7.65;7.05;;;;;;;;;;6170671;28;20309;-74
2022/06/25 07:01:48;;;;;;;5.88;5.38;;;;;;;;;;6173616;28;20282;-75
2022/06/25 07:05:08;;;;;;;6.72;6.10;;;;;;;;;;6158615;28;22475;-75
2022/06/25 07:08:29;;;;;;;4.72;4.32;;;;;;;;;;6172308;28;20233;-74
2022/06/25 07:11:50;;;;;;;4.45;4.05;;;;;;;;;;6175674;28;20225;-74
2022/06/25 07:15:10;;;;;;;5.47;5.00;;;;;;;;;;6179890;28;20504;-74
2022/06/25 07:18:35;;;;;;;4.40;4.10;;;;;;;;;;6180159;28;20226;-73
2022/06/25 07:21:55;;;;;;;5.82;5.13;;;;;;;;;;6179122;28;20313;-74
2022/06/25 07:25:16;;;;;;;5.13;4.72;;;;;;;;;;6178568;28;20237;-74
2022/06/25 07:28:36;;;;;;;5.07;4.63;;;;;;;;;;6176196;28;20249;-73
2022/06/25 07:31:57;;;;;;;4.10;3.70;;;;;;;;;;6169379;28;20226;-74
2022/06/25 07:35:19;;;;;;;6.95;5.70;;;;;;;;;;6171752;28;20670;-74
2022/06/25 07:38:40;;;;;;;4.47;3.85;;;;;;;;;;6168658;28;20229;-75
2022/06/25 07:42:01;;;;;;;5.50;5.10;;;;;;;;;;6171710;28;20665;-74
2022/06/25 07:45:21;;;;;;;3.85;3.47;;;;;;;;;;6176792;28;20233;-74
2022/06/25 07:48:42;;;;;;;4.40;4.10;;;;;;;;;;6177332;28;20242;-74
2022/06/25 07:52:04;;;;;;;5.30;4.82;;;;;;;;;;6181087;28;20619;-74
2022/06/25 07:55:24;;;;;;;4.57;4.10;;;;;;;;;;6175737;28;20242;-74
2022/06/25 07:58:45;;;;;;;3.25;3.05;;;;;;;;;;6179369;28;20245;-75
2022/06/25 08:02:07;;;;;;;4.30;3.80;;;;;;;;;;6167804;28;20238;-74
2022/06/25 08:05:28;;;;;;;4.72;3.88;;;;;;;;;;6176889;28;20238;-74
2022/06/25 08:08:50;;;;;;;3.65;3.30;;;;;;;;;;6172980;28;20222;-75
2022/06/25 08:12:10;;;;;;;4.30;3.80;;;;;;;;;;6185084;28;20226;-74
2022/06/25 08:15:31;;;;;;;4.78;4.32;;;;;;;;;;6188828;28;20233;-74
2022/06/25 08:18:52;;;;;;;4.68;4.15;;;;;;;;;;6180190;28;20288;-75
2022/06/25 08:22:12;;;;;;;5.15;4.05;;;;;;;;;;6182967;28;20225;-75
2022/06/25 08:25:34;;;;;;;4.28;3.97;;;;;;;;;;6183749;28;20238;-75
2022/06/25 08:28:55;;;;;;;4.40;3.92;;;;;;;;;;6172704;28;22105;-74
2022/06/25 08:32:15;;;;;;;4.18;3.90;;;;;;;;;;6177773;28;20230;-75
2022/06/25 08:35:36;;;;;;;5.47;5.07;;;;;;;;;;6176253;28;20221;-74
2022/06/25 08:38:57;;;;;;;5.75;5.25;;;;;;;;;;6169215;28;20333;-75
2022/06/25 08:42:19;;;;;;;5.72;5.22;;;;;;;;;;6176236;28;21852;-75
2022/06/25 08:45:39;;;;;;;5.85;5.45;;;;;;;;;;6178966;28;20511;-75
2022/06/25 08:49:00;;;;;;;7.78;7.13;;;;;;;;;;6176504;28;20328;-75
2022/06/25 08:52:21;;;;;;;5.53;5.13;;;;;;;;;;6173739;28;20234;-76
2022/06/25 08:55:44;;;;;;;6.47;5.57;;;;;;;;;;6174266;28;20238;-75
2022/06/25 08:59:06;;;;;;;5.97;5.50;;;;;;;;;;6173063;28;20229;-72
2022/06/25 09:02:27;;;;;;;7.18;6.60;;;;;;;;;;6168530;28;20238;-73
2022/06/25 09:05:47;;;;;;;6.88;6.35;;;;;;;;;;6172144;28;20238;-73
2022/06/25 09:09:10;;;;;;;6.78;6.30;;;;;;;;;;6176750;28;20242;-75
2022/06/25 09:12:30;;;;;;;6.20;5.70;;;;;;;;;;6173996;28;20222;-73
2022/06/25 09:15:52;;;;;;;5.57;5.18;;;;;;;;;;6170208;28;20233;-70
2022/06/25 09:19:13;;;;;;;5.97;5.38;;;;;;;;;;6168816;28;20250;-71
2022/06/25 09:22:35;;;;;;;6.38;5.88;;;;;;;;;;6175633;28;20218;-72
2022/06/25 09:26:02;;;;;;;6.85;6.35;;;;;;;;;;6167559;28;20238;-72
2022/06/25 09:29:36;;;;;;;5.70;5.30;;;;;;;;;;6181942;28;20230;-71
2022/06/25 09:32:58;;;;;;;6.68;6.20;;;;;;;;;;6184505;28;20249;-71
2022/06/25 09:36:19;;;;;;;6.22;5.80;;;;;;;;;;6188449;28;20225;-72
2022/06/25 09:39:40;;;;;;;6.47;5.93;;;;;;;;;;6185457;28;20234;-72
2022/06/25 09:43:11;;;;;;;6.72;6.32;;;;;;;;;;6187330;28;20226;-72
2022/06/25 09:46:32;;;;;;;6.80;6.22;;;;;;;;;;6183511;28;20234;-71
2022/06/25 09:50:02;;;;;;;8.15;7.50;;;;;;;;;;6187776;28;20229;-71
2022/06/25 09:53:26;;;;;;;6.63;6.20;;;;;;;;;;6187563;28;20229;-71
2022/06/25 09:56:47;;;;;;;7.55;6.95;;;;;;;;;;6179330;28;20230;-71
2022/06/25 10:00:10;;;;;;;6.32;5.93;;;;;;;;;;6183076;28;20243;-71
2022/06/25 10:03:31;;;;;;;5.32;5.00;;;;;;;;;;6187470;28;20705;-72
2022/06/25 10:06:54;;;;;;;4.88;4.53;;;;;;;;;;6182283;28;20309;-71
2022/06/25 10:10:17;;;;;;;4.72;3.90;;;;;;;;;;6175850;28;20615;-71
2022/06/25 10:13:38;;;;;;;4.20;3.97;;;;;;;;;;6179471;28;20229;-70
2022/06/25 10:16:59;;;;;;;4.63;4.32;;;;;;;;;;6182799;28;20253;-72
2022/06/25 10:20:19;;;;;;;5.38;4.88;;;;;;;;;;6181931;28;20304;-72
2022/06/25 10:23:42;;;;;;;4.50;4.10;;;;;;;;;;6184763;28;20229;-71
2022/06/25 10:27:03;;;;;;;3.83;3.60;;;;;;;;;;6180156;28;20229;-71
2022/06/25 10:30:44;;;;;;;4.30;4.00;;;;;;;;;;6181790;28;20545;-70
2022/06/25 10:34:05;;;;;;;3.40;3.20;;;;;;;;;;6182126;28;20981;-71
2022/06/25 10:37:26;;;;;;;4.28;3.88;;;;;;;;;;6173750;28;20380;-71
2022/06/25 10:40:52;;;;;;;3.35;3.10;;;;;;;;;;6188495;28;20241;-70
2022/06/25 10:44:19;;;;;;;3.53;3.03;;;;;;;;;;6181749;28;20225;-72
2022/06/25 10:47:40;;;;;;;2.90;2.67;;;;;;;;;;6180468;28;20241;-71
2022/06/25 10:51:01;;;;;;;3.17;2.88;;;;;;;;;;6184170;28;20229;-71
2022/06/25 10:54:39;;;;;;;2.50;2.33;;;;;;;;;;6185125;28;20312;-71
2022/06/25 10:58:11;;;;;;;3.13;2.38;;;;;;;;;;6181148;28;20763;-69
2022/06/25 11:01:33;;;;;;;2.88;2.67;;;;;;;;;;6182523;28;20237;-69
2022/06/25 11:04:55;;;;;;;2.60;2.40;;;;;;;;;;6182077;28;20229;-71
2022/06/25 11:08:16;;;;;;;3.13;2.80;;;;;;;;;;6181487;28;20790;-70
2022/06/25 11:11:37;;;;;;;2.25;2.15;;;;;;;;;;6182270;28;20230;-70
2022/06/25 11:15:00;;;;;;;2.05;1.95;;;;;;;;;;6179657;28;20225;-70
2022/06/25 11:18:21;;;;;;;4.40;2.15;;;;;;;;;;6183026;28;20245;-71
2022/06/25 11:21:43;;;;;;;3.22;2.33;;;;;;;;;;6181311;28;20241;-70
2022/06/25 11:28:52;;;;;;;2.78;2.55;;;;;;;;;;6181609;28;20233;-71
2022/06/25 11:32:14;;;;;;;2.90;2.20;;;;;;;;;;6181670;28;20587;-71
2022/06/25 11:35:39;;;;;;;2.42;2.22;;;;;;;;;;6185299;28;20251;-71
2022/06/25 11:39:00;;;;;;;2.78;2.60;;;;;;;;;;6182286;28;20340;-70
2022/06/25 11:42:20;;;;;;;3.90;3.45;;;;;;;;;;6181434;28;20619;-69
2022/06/25 11:45:48;;;;;;;2.70;2.50;;;;;;;;;;6180310;28;20238;-71
2022/06/25 11:49:11;;;;;;;2.30;2.20;;;;;;;;;;6183680;28;20659;-71
2022/06/25 11:52:31;;;;;;;2.60;2.40;;;;;;;;;;6185154;28;20225;-71
2022/06/25 11:55:58;;;;;;;2.92;2.45;;;;;;;;;;6184326;28;20229;-71
2022/06/25 11:59:23;;;;;;;2.72;2.53;;;;;;;;;;6163976;28;20241;-70
2022/06/25 12:02:44;;;;;;;3.33;2.70;;;;;;;;;;6171539;28;20242;-71
2022/06/25 12:06:07;;;;;;;2.38;2.17;;;;;;;;;;6174020;28;20225;-70
2022/06/25 12:09:28;;;;;;;3.20;3.00;;;;;;;;;;6173040;28;20237;-70
2022/06/25 12:12:49;;;;;;;2.42;2.33;;;;;;;;;;6183056;28;20305;-70
2022/06/25 12:16:10;;;;;;;2.92;2.67;;;;;;;;;;6177398;28;20330;-70
2022/06/25 12:19:44;;;;;;;3.85;2.75;;;;;;;;;;6174928;28;20234;-72
2022/06/25 12:23:05;;;;;;;2.30;2.20;;;;;;;;;;6177973;28;20226;-71
2022/06/25 12:26:27;;;;;;;3.08;2.88;;;;;;;;;;6177951;28;20230;-71
2022/06/25 12:29:48;;;;;;;2.58;2.30;;;;;;;;;;6186098;28;20606;-71
2022/06/25 12:33:13;;;;;;;2.13;2.03;;;;;;;;;;6174573;28;20608;-71
2022/06/25 12:36:37;;;;;;;2.80;2.60;;;;;;;;;;6198675;28;20241;-72
2022/06/25 12:40:00;;;;;;;4.13;2.28;;;;;;;;;;6187283;28;20233;-72
2022/06/25 12:43:21;;;;;;;2.50;2.40;;;;;;;;;;6189826;28;20229;-72
2022/06/25 12:46:42;;;;;;;3.22;2.65;;;;;;;;;;6166289;28;20320;-72
2022/06/25 12:50:02;;;;;;;2.92;1.73;;;;;;;;;;6179934;28;20237;-71
2022/06/25 12:53:23;;;;;;;2.15;2.05;;;;;;;;;;6180437;28;20587;-72
2022/06/25 12:56:51;;;;;;;2.45;2.10;;;;;;;;;;6182035;28;20242;-70
2022/06/25 13:00:17;;;;;;;2.50;2.30;;;;;;;;;;6178259;28;20233;-70
2022/06/25 13:03:38;;;;;;;2.00;1.88;;;;;;;;;;6177696;28;20258;-71
2022/06/25 13:06:58;;;;;;;2.20;2.10;;;;;;;;;;6180998;28;20708;-70
2022/06/25 13:10:19;;;;;;;2.80;2.60;;;;;;;;;;6179070;28;20226;-72
2022/06/25 13:13:41;;;;;;;1.80;1.70;;;;;;;;;;6176575;28;20222;-71
2022/06/25 13:17:01;;;;;;;2.05;1.95;;;;;;;;;;6177121;28;20238;-71
2022/06/25 13:20:22;;;;;;;2.35;2.20;;;;;;;;;;6174049;28;20597;-71
2022/06/25 13:23:42;;;;;;;1.75;1.65;;;;;;;;;;6175520;28;20816;-71
2022/06/25 13:27:03;;;;;;;2.30;1.77;;;;;;;;;;6176733;28;20249;-71
2022/06/25 13:30:25;;;;;;;2.35;1.48;;;;;;;;;;6178486;28;20229;-72
2022/06/25 13:33:45;;;;;;;2.08;1.98;;;;;;;;;;6184728;28;20604;-72
2022/06/25 13:37:06;;;;;;;2.47;2.28;;;;;;;;;;6184255;28;20517;-72
2022/06/25 13:40:27;;;;;;;2.20;2.08;;;;;;;;;;6184457;28;20596;-70
2022/06/25 13:43:49;;;;;;;2.30;2.20;;;;;;;;;;6183283;28;20238;-70
2022/06/25 13:47:11;;;;;;;2.17;2.03;;;;;;;;;;6184158;28;20234;-71
2022/06/25 13:50:31;;;;;;;2.53;2.33;;;;;;;;;;6184008;28;20229;-71
2022/06/25 13:53:52;;;;;;;4.78;3.70;;;;;;;;;;6185333;28;20824;-72
2022/06/25 13:57:13;;;;;;;2.47;2.00;;;;;;;;;;6186271;28;20423;-71
2022/06/25 14:00:34;;;;;;;2.67;1.83;;;;;;;;;;6190879;28;20313;-71
2022/06/25 14:03:56;;;;;;;3.08;1.70;;;;;;;;;;6188773;28;20229;-72
2022/06/25 14:07:16;;;;;;;2.70;1.88;;;;;;;;;;6185084;28;20528;-70
2022/06/25 14:10:36;;;;;;;1.65;1.50;;;;;;;;;;6183998;28;20469;-72
2022/06/25 14:13:57;;;;;;;2.35;2.15;;;;;;;;;;6181328;28;20473;-71
2022/06/25 14:17:17;;;;;;;2.15;2.05;;;;;;;;;;6184401;28;20230;-71
2022/06/25 14:20:40;;;;;;;1.80;1.40;;;;;;;;;;6184496;28;20501;-71
2022/06/25 14:24:00;;;;;;;2.92;1.67;;;;;;;;;;6185916;28;20241;-71
2022/06/25 14:27:21;;;;;;;1.20;1.20;;;;;;;;;;6183803;28;20506;-71
2022/06/25 14:30:42;;;;;;;2.50;1.40;;;;;;;;;;6178011;28;20527;-71
2022/06/25 14:34:03;;;;;;;3.08;2.78;;;;;;;;;;6173693;28;20634;-70
2022/06/25 14:44:41;;;;;;;3.30;1.90;;;;;;;;;;6179735;28;20221;-71
2022/06/25 14:48:01;;;;;;;1.45;1.35;;;;;;;;;;6174997;28;20237;-71
2022/06/25 14:51:25;;;;;;;1.65;1.08;;;;;;;;;;6179097;28;20237;-71
2022/06/25 14:54:46;;;;;;;1.63;1.38;;;;;;;;;;6180424;28;20265;-71
2022/06/25 14:58:07;;;;;;;1.70;1.20;;;;;;;;;;6175378;28;20234;-72
2022/06/25 15:01:29;;;;;;;1.52;1.30;;;;;;;;;;6176071;28;20593;-71
2022/06/25 15:04:49;;;;;;;3.72;1.92;;;;;;;;;;6164956;28;20229;-70
2022/06/25 15:08:10;;;;;;;1.02;1.02;;;;;;;;;;6176320;28;20229;-71
2022/06/25 15:11:32;;;;;;;2.63;1.48;;;;;;;;;;6179587;28;20238;-71
2022/06/25 15:14:53;;;;;;;1.00;1.00;;;;;;;;;;6180819;28;20238;-71
2022/06/25 15:18:14;;;;;;;1.02;1.02;;;;;;;;;;6175007;28;25437;-71
2022/06/25 15:21:34;;;;;;;1.45;1.35;;;;;;;;;;6174352;28;20238;-72
2022/06/25 15:24:55;;;;;;;2.72;1.30;;;;;;;;;;6176874;28;20230;-71
2022/06/25 15:28:17;;;;;;;2.10;1.38;;;;;;;;;;6180878;28;20241;-72
2022/06/25 15:31:39;;;;;;;1.70;1.20;;;;;;;;;;6175680;28;20996;-72
2022/06/25 15:35:00;;;;;;;1.73;1.20;;;;;;;;;;6177943;28;20226;-70
2022/06/25 15:38:21;;;;;;;1.13;1.13;;;;;;;;;;6170166;28;20230;-71
2022/06/25 15:41:41;;;;;;;2.45;1.30;;;;;;;;;;6178494;28;20234;-71
2022/06/25 15:45:04;;;;;;;1.42;1.33;;;;;;;;;;6175986;28;20313;-71
2022/06/25 15:48:25;;;;;;;1.35;1.27;;;;;;;;;;6174837;28;20226;-71
2022/06/25 15:51:45;;;;;;;1.60;1.30;;;;;;;;;;6174444;28;20316;-72
2022/06/25 15:55:06;;;;;;;1.88;1.23;;;;;;;;;;6181375;28;20321;-71
2022/06/25 15:58:26;;;;;;;1.50;1.40;;;;;;;;;;6175744;28;20233;-72
2022/06/25 16:01:48;;;;;;;1.35;1.25;;;;;;;;;;6177603;28;20229;-72
2022/06/25 16:05:09;;;;;;;1.30;1.10;;;;;;;;;;6180453;28;20246;-71
2022/06/25 16:08:29;;;;;;;3.20;1.75;;;;;;;;;;6181620;28;20233;-70
2022/06/25 16:11:50;;;;;;;1.08;0.98;;;;;;;;;;6176302;28;20226;-71
2022/06/25 16:15:12;;;;;;;1.77;1.65;;;;;;;;;;6177025;28;20226;-72
2022/06/25 16:18:35;;;;;;;2.30;1.60;;;;;;;;;;6182173;28;20242;-71
2022/06/25 16:21:56;;;;;;;2.00;1.90;;;;;;;;;;6181610;28;20238;-71
2022/06/25 16:25:16;;;;;;;1.20;1.10;;;;;;;;;;6183776;28;20233;-71
2022/06/25 16:28:37;;;;;;;2.22;1.30;;;;;;;;;;6178449;28;20324;-71
2022/06/25 16:31:57;;;;;;;1.98;1.63;;;;;;;;;;6180464;28;20234;-72
2022/06/25 16:35:19;;;;;;;1.67;1.30;;;;;;;;;;6178935;28;20229;-72
2022/06/25 16:38:40;;;;;;;1.40;1.30;;;;;;;;;;6181269;28;20231;-72
2022/06/25 16:42:00;;;;;;;3.30;2.40;;;;;;;;;;6179746;28;20599;-72
2022/06/25 16:45:21;;;;;;;1.67;1.58;;;;;;;;;;6182307;28;20595;-72
2022/06/25 16:48:42;;;;;;;1.13;1.13;;;;;;;;;;6181093;28;20257;-71
2022/06/25 16:52:04;;;;;;;1.48;1.38;;;;;;;;;;6179864;28;20234;-71
2022/06/25 16:55:25;;;;;;;1.70;1.60;;;;;;;;;;6181095;28;20234;-71
2022/06/25 16:58:46;;;;;;;2.78;1.63;;;;;;;;;;6184722;28;20234;-72
2022/06/25 17:02:07;;;;;;;1.83;1.27;;;;;;;;;;6176106;28;20233;-71
2022/06/25 17:05:28;;;;;;;1.70;1.60;;;;;;;;;;6172705;28;20237;-71
2022/06/25 17:08:50;;;;;;;1.58;1.48;;;;;;;;;;6186847;28;20241;-66
2022/06/25 17:12:11;;;;;;;3.00;2.30;;;;;;;;;;6192018;28;20240;-68
2022/06/25 17:15:31;;;;;;;4.18;2.63;;;;;;;;;;6182050;28;20238;-67
2022/06/25 17:18:52;;;;;;;3.85;3.38;;;;;;;;;;6176319;28;20233;-68
2022/06/25 17:22:12;;;;;;;2.47;2.28;;;;;;;;;;6176459;28;20518;-68
2022/06/25 17:25:35;;;;;;;4.90;2.97;;;;;;;;;;6176281;28;20233;-67
2022/06/25 17:28:57;;;;;;;3.03;2.83;;;;;;;;;;6176112;28;20308;-67
2022/06/25 17:32:18;;;;;;;3.15;2.50;;;;;;;;;;6176488;28;20234;-67
2022/06/25 17:35:39;;;;;;;2.58;2.38;;;;;;;;;;6177511;28;20667;-68
2022/06/25 17:39:01;;;;;;;2.53;2.25;;;;;;;;;;6171618;28;20222;-67
2022/06/25 17:42:25;;;;;;;2.65;2.45;;;;;;;;;;6168008;28;20238;-68
2022/06/25 17:45:46;;;;;;;2.67;2.58;;;;;;;;;;6164992;28;20237;-67
2022/06/25 17:49:07;;;;;;;3.42;2.88;;;;;;;;;;6167137;28;20249;-68
2022/06/25 17:52:27;;;;;;;3.80;2.40;;;;;;;;;;6162859;28;23885;-69
2022/06/25 17:55:48;;;;;;;3.50;2.80;;;;;;;;;;6167461;28;20238;-75
2022/06/25 17:59:10;;;;;;;12.13;11.27;;;;;;;;;;6173124;28;20189;-74
2022/06/25 18:02:30;;;;;;;7.97;7.38;;;;;;;;;;6170174;28;21033;-75
2022/06/25 18:05:51;;;;;;;109.18;101.85;;;;;;;;;;6173303;28;20622;-73
2022/06/25 18:09:11;;;;;;;45.60;42.15;;;;;;;;;;6168925;28;20341;-71
2022/06/25 18:12:33;;;;;;;1161.97;996.65;;;;;;;;;;6173940;28;20260;-73
2022/06/25 18:15:54;;;;;;;1247.85;900.25;;;;;;;;;;6173052;28;20271;-72
2022/06/25 18:19:15;;;;;;;98.95;91.70;;;;;;;;;;6166865;28;20604;-73
2022/06/25 18:22:36;;;;;;;139.88;129.25;;;;;;;;;;6175056;28;20230;-74
2022/06/25 18:25:56;;;;;;;39.40;36.40;;;;;;;;;;6178670;28;20734;-74
2022/06/25 18:29:17;;;;;;;6.93;5.95;;;;;;;;;;6178275;28;20328;-74
2022/06/25 18:32:39;;;;;;;6.90;6.40;;;;;;;;;;6177464;28;21838;-74
2022/06/25 18:36:00;;;;;;;6.18;5.63;;;;;;;;;;6180742;28;20258;-74
2022/06/25 18:39:20;;;;;;;8.13;7.53;;;;;;;;;;6183100;28;20221;-74
2022/06/25 18:42:41;;;;;;;5.72;4.97;;;;;;;;;;6179414;28;20265;-74
2022/06/25 18:46:02;;;;;;;3.63;3.33;;;;;;;;;;6166980;28;20237;-74
2022/06/25 18:49:24;;;;;;;3.83;3.53;;;;;;;;;;6155146;28;20238;-73
2022/06/25 18:52:45;;;;;;;5.10;4.70;;;;;;;;;;6161354;28;20246;-74
2022/06/25 18:56:07;;;;;;;4.53;4.07;;;;;;;;;;6152539;28;20221;-73
2022/06/25 18:59:28;;;;;;;4.30;3.90;;;;;;;;;;6163170;28;20256;-74
2022/06/25 19:02:48;;;;;;;4.15;3.80;;;;;;;;;;6158856;28;20648;-74
2022/06/25 19:06:10;;;;;;;4.32;3.83;;;;;;;;;;6157463;28;20233;-74
2022/06/25 19:09:31;;;;;;;3.15;2.95;;;;;;;;;;6153180;28;20549;-75
2022/06/25 19:12:52;;;;;;;3.90;3.60;;;;;;;;;;6159597;28;20222;-75
2022/06/25 19:16:13;;;;;;;4.00;3.65;;;;;;;;;;6164929;28;20230;-73
2022/06/25 19:19:34;;;;;;;5.30;3.67;;;;;;;;;;6163384;28;20251;-74
2022/06/25 19:22:56;;;;;;;3.95;3.55;;;;;;;;;;6172823;28;20237;-75
2022/06/25 19:26:16;;;;;;;5.38;4.25;;;;;;;;;;6177560;28;25299;-75
2022/06/25 19:29:37;;;;;;;4.20;3.63;;;;;;;;;;6165346;28;20243;-77
2022/06/25 19:32:59;;;;;;;4.55;4.15;;;;;;;;;;6173757;28;20234;-73
2022/06/25 19:36:19;;;;;;;9.57;4.30;;;;;;;;;;6177395;28;20242;-76
2022/06/25 19:39:42;;;;;;;4.13;3.83;;;;;;;;;;6168487;28;20253;-73
2022/06/25 19:43:02;;;;;;;3.63;3.33;;;;;;;;;;6170880;28;20230;-74
2022/06/25 19:46:23;;;;;;;4.43;4.05;;;;;;;;;;6170943;28;20229;-70
2022/06/25 19:49:43;;;;;;;4.03;3.53;;;;;;;;;;6166267;28;20264;-71
2022/06/25 19:53:04;;;;;;;3.53;3.33;;;;;;;;;;6170140;28;20222;-69
2022/06/25 19:56:32;;;;;;;4.57;4.20;;;;;;;;;;6167158;28;20234;-70
2022/06/25 19:59:52;;;;;;;4.75;4.38;;;;;;;;;;6171915;28;20222;-69
2022/06/25 20:03:13;;;;;;;4.75;4.35;;;;;;;;;;6170364;28;20226;-69
2022/06/25 20:06:33;;;;;;;3.95;3.67;;;;;;;;;;6169593;28;20234;-70
2022/06/25 20:09:54;;;;;;;4.05;3.75;;;;;;;;;;6171595;28;20625;-69
2022/06/25 20:13:17;;;;;;;7.03;5.03;;;;;;;;;;6164821;28;20225;-70
2022/06/25 20:16:37;;;;;;;5.97;4.85;;;;;;;;;;6164823;28;20234;-70